Time;durP1;ratioP1;P1;durP2;ratioP2;P2;SDS_P1;SDS_P2;PMS_P1;PMS_P2;Temp;Humidity;BMP_temperature;BMP_pressure;BME280_temperature;BME280_humidity;BME280_pressure;Samples;Min_cycle;Max_cycle;Signal;HPM_P1;HPM_P2
2022/08/22 00:00:12;;;;;;;19.90;5.47;;;;;;;18.57;100.00;98830.91;1638721;87;21564;-69
2022/08/22 00:03:16;;;;;;;19.25;4.80;;;;;;;18.58;100.00;98839.14;1667351;86;21067;-69
2022/08/22 00:05:58;;;;;;;15.48;4.55;;;;;;;18.58;100.00;98839.14;1667851;86;20982;-68
2022/08/22 00:08:34;;;;;;;16.75;4.28;;;;;;;18.59;100.00;98840.84;1638613;86;20964;-68
2022/08/22 00:11:28;;;;;;;20.57;4.90;;;;;;;18.58;100.00;98837.02;1667102;85;21164;-68
2022/08/22 00:14:06;;;;;;;17.12;5.12;;;;;;;18.59;100.00;98834.26;1638911;87;20974;-68
2022/08/22 00:16:47;;;;;;;23.83;5.33;;;;;;;18.57;100.00;98842.77;1667139;86;21007;-69
2022/08/22 00:19:29;;;;;;;20.00;5.30;;;;;;;18.55;100.00;98835.48;1639533;86;21019;-68
2022/08/22 00:22:07;;;;;;;13.80;5.60;;;;;;;18.52;100.00;98835.73;1670047;86;20971;-68
2022/08/22 00:24:48;;;;;;;16.25;5.45;;;;;;;18.50;100.00;98836.81;1665411;86;21461;-68
2022/08/22 00:27:20;;;;;;;18.15;4.70;;;;;;;18.47;100.00;98831.33;1640726;86;21588;-68
2022/08/22 00:29:52;;;;;;;17.60;5.03;;;;;;;18.44;100.00;98839.95;1670082;85;20992;-68
2022/08/22 00:32:41;;;;;;;14.93;4.05;;;;;;;18.44;100.00;98839.95;1669748;84;21439;-70
2022/08/22 00:35:22;;;;;;;20.05;5.45;;;;;;;18.39;100.00;98840.81;1638183;86;21130;-68
2022/08/22 00:38:13;;;;;;;16.25;4.60;;;;;;;18.30;100.00;98839.80;1669823;86;21137;-68
2022/08/22 00:41:06;;;;;;;16.02;4.47;;;;;;;18.21;100.00;98840.06;1669728;86;21023;-69
2022/08/22 00:43:50;;;;;;;17.50;4.58;;;;;;;18.16;100.00;98840.11;1669883;86;21022;-68
2022/08/22 00:46:37;;;;;;;22.40;5.70;;;;;;;18.11;100.00;98843.12;1669733;86;20991;-68
2022/08/22 00:49:32;;;;;;;17.35;4.20;;;;;;;18.09;100.00;98841.09;1649129;86;21459;-68
2022/08/22 00:52:13;;;;;;;18.07;4.60;;;;;;;18.07;100.00;98844.80;1669724;86;21157;-70
2022/08/22 00:55:05;;;;;;;23.73;4.53;;;;;;;18.02;100.00;98847.80;1669346;86;21034;-69
2022/08/22 00:57:55;;;;;;;16.77;4.92;;;;;;;17.97;100.00;98847.37;1669775;86;21082;-68
2022/08/22 01:00:25;;;;;;;27.52;6.20;;;;;;;17.92;100.00;98848.70;1669715;86;21551;-69
2022/08/22 01:03:23;;;;;;;23.77;5.40;;;;;;;17.90;100.00;98844.39;1669755;85;20983;-68
2022/08/22 01:06:01;;;;;;;19.57;5.05;;;;;;;17.90;100.00;98843.08;1669111;86;21136;-69
2022/08/22 01:08:40;;;;;;;15.83;4.08;;;;;;;17.90;100.00;98848.81;1669751;86;21039;-69
2022/08/22 01:11:42;;;;;;;23.30;5.03;;;;;;;17.85;100.00;98847.87;1669600;84;21000;-69
2022/08/22 01:14:29;;;;;;;20.70;6.25;;;;;;;17.83;100.00;98848.95;1669702;85;21063;-69
2022/08/22 01:17:19;;;;;;;14.90;4.95;;;;;;;17.83;100.00;98848.47;1669534;86;21027;-70
2022/08/22 01:20:19;;;;;;;18.80;5.20;;;;;;;17.84;100.00;98834.84;1669632;84;21151;-69
2022/08/22 01:23:09;;;;;;;22.87;5.87;;;;;;;17.85;100.00;98839.14;1636152;87;21027;-69
2022/08/22 01:26:18;;;;;;;18.82;4.58;;;;;;;17.87;100.00;98841.17;1667228;86;21067;-69
2022/08/22 01:29:12;;;;;;;22.95;5.28;;;;;;;17.85;100.00;98845.23;1669783;86;21031;-68
2022/08/22 01:31:59;;;;;;;21.05;5.17;;;;;;;17.85;100.00;98848.34;1669286;86;21558;-70
2022/08/22 01:34:52;;;;;;;27.13;5.58;;;;;;;17.85;100.00;98854.92;1669820;86;21789;-68
2022/08/22 01:37:42;;;;;;;16.05;5.20;;;;;;;17.84;100.00;98851.45;1669821;86;20963;-68
2022/08/22 01:40:41;;;;;;;23.62;6.12;;;;;;;17.84;100.00;98852.77;1669675;85;21112;-68
2022/08/22 01:43:39;;;;;;;20.12;4.85;;;;;;;17.81;100.00;98846.92;1669683;84;21471;-68
2022/08/22 01:46:30;;;;;;;18.77;5.47;;;;;;;17.79;100.00;98848.35;1649550;86;21045;-68
2022/08/22 01:49:25;;;;;;;21.62;5.50;;;;;;;17.79;100.00;98847.52;1669737;86;21801;-69
2022/08/22 01:52:09;;;;;;;18.67;5.60;;;;;;;17.79;100.00;98848.83;1669646;86;21510;-69
2022/08/22 01:55:08;;;;;;;26.77;5.20;;;;;;;17.78;100.00;98850.66;1627879;86;21508;-69
2022/08/22 01:58:18;;;;;;;25.88;5.78;;;;;;;17.79;100.00;98858.88;1615149;86;21115;-69
2022/08/22 02:01:11;;;;;;;27.98;6.58;;;;;;;17.77;100.00;98856.88;1669678;86;21483;-69
2022/08/22 02:04:00;;;;;;;22.40;5.45;;;;;;;17.77;100.00;98856.04;1651859;86;21511;-69
2022/08/22 02:06:55;;;;;;;21.07;4.83;;;;;;;17.75;100.00;98851.38;1638339;86;20979;-69
2022/08/22 02:10:02;;;;;;;23.70;5.72;;;;;;;17.73;100.00;98859.88;1635016;86;21499;-69
2022/08/22 02:12:43;;;;;;;16.32;5.40;;;;;;;17.70;100.00;98858.80;1669763;85;21043;-69
2022/08/22 02:15:21;;;;;;;14.80;4.42;;;;;;;17.66;100.00;98849.00;1669733;86;21586;-69
2022/08/22 02:18:08;;;;;;;14.68;4.90;;;;;;;17.68;100.00;98854.13;1669694;86;21226;-69
2022/08/22 02:21:18;;;;;;;24.15;6.17;;;;;;;17.70;100.00;98844.33;1672880;84;20976;-69
2022/08/22 02:24:04;;;;;;;22.90;4.75;;;;;;;17.71;100.00;98855.21;1671280;85;21015;-69
2022/08/22 02:26:45;;;;;;;20.02;5.12;;;;;;;17.70;100.00;98860.11;1646384;87;21030;-69
2022/08/22 02:29:19;;;;;;;17.73;4.50;;;;;;;17.70;100.00;98862.74;1670794;85;21056;-69
2022/08/22 02:31:54;;;;;;;23.75;5.70;;;;;;;17.70;100.00;98861.42;1675979;85;21143;-69
2022/08/22 02:34:33;;;;;;;20.00;5.12;;;;;;;17.69;100.00;98857.13;1673729;85;21099;-69
2022/08/22 02:37:23;;;;;;;17.32;4.75;;;;;;;17.71;100.00;98859.16;1675192;85;21072;-69
2022/08/22 02:40:13;;;;;;;17.67;5.22;;;;;;;17.70;100.00;98862.74;1673848;85;21005;-68
2022/08/22 02:42:48;;;;;;;23.55;4.92;;;;;;;17.67;100.00;98857.72;1676120;85;21052;-69
2022/08/22 02:45:32;;;;;;;23.30;4.78;;;;;;;17.66;100.00;98870.03;1676117;85;21808;-69
2022/08/22 02:48:49;;;;;;;18.98;4.75;;;;;;;17.62;100.00;98867.25;1674969;85;21064;-67
2022/08/22 02:51:47;;;;;;;20.20;5.05;;;;;;;17.58;100.00;98867.97;1676027;85;20964;-69
2022/08/22 02:54:43;;;;;;;16.70;5.08;;;;;;;17.53;100.00;98876.73;1675918;85;21001;-68
2022/08/22 02:57:23;;;;;;;23.50;5.83;;;;;;;17.49;100.00;98871.83;1660270;86;21125;-68
2022/08/22 03:00:23;;;;;;;19.23;5.85;;;;;;;17.46;100.00;98879.48;1659992;86;21129;-67
2022/08/22 03:03:07;;;;;;;19.62;5.50;;;;;;;17.44;100.00;98877.44;1657154;86;21035;-66
2022/08/22 03:05:42;;;;;;;16.17;5.20;;;;;;;17.41;100.00;98878.99;1659300;86;21055;-66
2022/08/22 03:08:23;;;;;;;18.48;5.35;;;;;;;17.37;100.00;98880.70;1674766;85;21055;-69
2022/08/22 03:11:23;;;;;;;19.42;5.37;;;;;;;17.30;100.00;98880.33;1645528;87;21090;-69
2022/08/22 03:14:32;;;;;;;20.00;5.67;;;;;;;17.26;100.00;98882.83;1649771;84;21767;-68
2022/08/22 03:17:11;;;;;;;11.95;5.17;;;;;;;17.25;100.00;98884.27;1646358;87;21581;-68
2022/08/22 03:20:03;;;;;;;20.02;5.28;;;;;;;17.23;100.00;98881.75;1674274;84;21557;-68
2022/08/22 03:22:51;;;;;;;19.73;4.92;;;;;;;17.25;100.00;98889.05;1638598;87;21070;-68
2022/08/22 03:25:35;;;;;;;31.75;4.67;;;;;;;17.33;100.00;98893.23;1667260;85;21016;-68
2022/08/22 03:28:12;;;;;;;15.80;5.08;;;;;;;17.44;100.00;98889.75;1638969;87;21170;-68
2022/08/22 03:30:52;;;;;;;16.87;5.17;;;;;;;17.60;100.00;98891.52;1663093;86;21074;-68
2022/08/22 03:33:23;;;;;;;21.25;5.65;;;;;;;17.76;100.00;98890.71;1667153;86;21067;-68
2022/08/22 03:35:55;;;;;;;21.95;5.22;;;;;;;17.95;100.00;98890.55;1666643;86;21514;-69
2022/08/22 03:38:30;;;;;;;17.87;5.00;;;;;;;18.12;100.00;98896.11;1639206;87;21006;-69
2022/08/22 03:41:26;;;;;;;21.82;5.90;;;;;;;18.29;100.00;98900.47;1666000;86;21160;-68
2022/08/22 03:44:13;;;;;;;19.85;7.60;;;;;;;18.49;100.00;98890.45;1626705;86;21082;-67
2022/08/22 03:47:01;;;;;;;14.85;5.30;;;;;;;18.71;100.00;98893.00;1667206;85;21067;-68
2022/08/22 03:49:55;;;;;;;16.52;5.12;;;;;;;18.93;100.00;98897.29;1638964;87;21023;-67
2022/08/22 03:52:34;;;;;;;;;;;;;;;19.18;100.00;98894.72;1644713;86;21049;-68
2022/08/22 03:55:26;;;;;;;22.00;5.60;;;;;;;19.43;100.00;98898.20;1667389;86;21171;-67
2022/08/22 03:58:16;;;;;;;25.48;5.72;;;;;;;19.68;100.00;98904.02;1667094;86;20983;-68
2022/08/22 04:01:18;;;;;;;18.30;6.30;;;;;;;19.96;100.00;98905.90;1640549;86;21089;-68
2022/08/22 04:04:19;;;;;;;19.37;5.50;;;;;;;20.24;100.00;98909.52;1648562;86;20992;-68
2022/08/22 04:07:00;;;;;;;18.82;5.70;;;;;;;20.50;100.00;98908.53;1648588;87;21453;-68
2022/08/22 04:09:58;;;;;;;23.47;6.17;;;;;;;20.80;100.00;98916.27;1648587;87;21156;-68
2022/08/22 04:13:11;;;;;;;21.62;5.45;;;;;;;21.07;98.35;98920.81;1648030;87;20989;-67
2022/08/22 04:16:06;;;;;;;21.50;4.42;;;;;;;21.34;96.33;98908.66;1648578;87;21115;-68
2022/08/22 04:18:54;;;;;;;19.25;5.33;;;;;;;21.61;93.90;98918.76;1648130;86;21025;-68
2022/08/22 04:21:37;;;;;;;27.13;6.10;;;;;;;21.85;91.99;98922.68;1656190;85;21047;-68
2022/08/22 04:24:43;;;;;;;20.15;5.37;;;;;;;22.10;90.52;98920.68;1660365;84;21172;-68
2022/08/22 04:27:21;;;;;;;23.62;5.45;;;;;;;22.30;89.49;98922.70;1705983;84;21526;-68
2022/08/22 04:30:11;;;;;;;19.87;5.97;;;;;;;22.53;87.37;98922.59;1700686;84;21018;-68
2022/08/22 04:33:06;;;;;;;24.05;5.70;;;;;;;22.67;86.88;98922.03;1706231;84;21533;-68
2022/08/22 04:36:07;;;;;;;23.98;5.72;;;;;;;22.86;85.48;98914.91;1706455;84;21506;-70
2022/08/22 04:39:11;;;;;;;21.87;5.58;;;;;;;23.10;84.61;98924.86;1706247;84;21194;-69
2022/08/22 04:41:49;;;;;;;23.00;5.90;;;;;;;23.32;84.00;98932.30;1705922;83;21066;-69
2022/08/22 04:44:33;;;;;;;21.87;6.10;;;;;;;23.60;82.95;98928.96;1706427;83;20971;-69
2022/08/22 04:47:17;;;;;;;21.00;5.72;;;;;;;23.76;81.23;98931.71;1700889;84;21030;-69
2022/08/22 04:49:49;;;;;;;23.77;6.37;;;;;;;23.82;80.89;98923.08;1726983;82;21050;-68
2022/08/22 04:53:08;;;;;;;20.02;5.17;;;;;;;23.95;80.02;98920.81;1706353;84;21129;-69
2022/08/22 04:55:57;;;;;;;19.87;5.53;;;;;;;24.10;78.97;98925.49;1706179;84;20966;-69
2022/08/22 04:58:32;;;;;;;27.73;6.37;;;;;;;24.22;78.16;98931.66;1706229;84;21459;-70
2022/08/22 05:01:18;;;;;;;26.60;5.58;;;;;;;24.41;77.89;98925.73;1705277;84;21057;-69
2022/08/22 05:03:59;;;;;;;20.75;5.40;;;;;;;24.66;76.96;98928.25;1706235;84;21420;-68
2022/08/22 05:06:32;;;;;;;18.77;5.70;;;;;;;24.91;75.53;98929.08;1701344;84;21816;-68
2022/08/22 05:09:01;;;;;;;24.32;6.00;;;;;;;25.05;74.76;98929.75;1699559;84;21665;-68
2022/08/22 05:11:28;;;;;;;20.43;4.85;;;;;;;25.22;74.02;98929.71;1704719;84;21054;-68
2022/08/22 05:14:02;;;;;;;20.15;5.90;;;;;;;25.35;73.31;98929.53;1704877;84;20979;-69
2022/08/22 05:16:39;;;;;;;22.35;5.62;;;;;;;25.49;72.82;98928.48;1693048;84;21057;-69
2022/08/22 05:19:20;;;;;;;25.57;5.67;;;;;;;25.57;71.62;98934.63;1693612;84;21821;-69
2022/08/22 05:21:49;;;;;;;21.87;6.08;;;;;;;25.42;71.92;98932.32;1693523;84;20952;-69
2022/08/22 05:24:41;;;;;;;20.68;5.53;;;;;;;25.37;72.60;98932.86;1695223;83;20966;-67
2022/08/22 05:27:18;;;;;;;22.55;5.92;;;;;;;25.39;72.82;98933.48;1708704;83;21471;-67
2022/08/22 05:29:49;;;;;;;21.95;5.42;;;;;;;25.43;72.99;98934.48;1706633;83;37368;-67
2022/08/22 05:32:27;;;;;;;24.27;5.10;;;;;;;25.36;73.10;98935.19;1695661;83;21134;-66
2022/08/22 05:35:00;;;;;;;27.70;6.78;;;;;;;25.29;73.58;98932.86;1697489;83;21072;-65
2022/08/22 05:37:47;;;;;;;18.95;5.65;;;;;;;25.29;74.27;98934.19;1711817;82;21498;-66
2022/08/22 05:40:23;;;;;;;23.55;5.67;;;;;;;25.35;73.96;98934.02;1709504;83;20971;-66
2022/08/22 05:42:49;;;;;;;23.18;6.15;;;;;;;25.32;73.12;98933.86;1698909;83;21010;-65
2022/08/22 05:45:17;;;;;;;19.87;5.10;;;;;;;25.15;73.37;98926.92;1707081;83;21960;-67
2022/08/22 05:48:04;;;;;;;24.10;5.90;;;;;;;25.02;73.94;98927.42;1706529;83;21026;-66
2022/08/22 05:50:42;;;;;;;26.65;5.95;;;;;;;25.02;74.56;98929.25;1700493;83;21101;-66
2022/08/22 05:53:15;;;;;;;17.92;5.60;;;;;;;25.03;74.38;98928.25;1708775;83;21550;-66
2022/08/22 05:56:10;;;;;;;23.45;5.90;;;;;;;25.08;74.32;98921.93;1708980;83;21045;-66
2022/08/22 05:58:42;;;;;;;22.75;6.20;;;;;;;25.05;73.58;98923.59;1709498;83;21155;-65
2022/08/22 06:01:23;;;;;;;17.50;5.50;;;;;;;24.95;74.31;98922.45;1710238;83;21066;-66
2022/08/22 06:04:01;;;;;;;22.58;5.33;;;;;;;24.89;74.29;98929.73;1710127;83;21066;-65
2022/08/22 06:06:30;;;;;;;27.48;5.85;;;;;;;24.82;74.97;98926.08;1691987;83;21033;-65
2022/08/22 06:09:11;;;;;;;18.80;5.87;;;;;;;24.75;75.48;98930.92;1697616;83;21057;-67
2022/08/22 06:11:44;;;;;;;26.85;6.60;;;;;;;24.71;76.43;98935.23;1708591;83;21573;-65
2022/08/22 06:14:44;;;;;;;25.52;5.75;;;;;;;24.69;76.62;98932.41;1709904;82;21042;-66
2022/08/22 06:17:20;;;;;;;20.82;5.67;;;;;;;24.66;76.87;98932.73;1709476;83;21072;-65
2022/08/22 06:19:49;;;;;;;31.55;5.83;;;;;;;24.68;76.95;98937.39;1709610;82;21184;-67
2022/08/22 06:22:26;;;;;;;23.98;5.45;;;;;;;24.66;76.95;98940.21;1719201;82;21053;-67
2022/08/22 06:24:56;;;;;;;25.62;5.65;;;;;;;24.65;77.50;98940.38;1723475;83;21159;-65
2022/08/22 06:27:25;;;;;;;23.83;6.10;;;;;;;24.62;77.19;98935.39;1711520;83;21058;-65
2022/08/22 06:29:58;;;;;;;19.55;5.58;;;;;;;24.54;77.60;98936.73;1724220;83;21026;-65
2022/08/22 06:32:33;;;;;;;17.67;5.58;;;;;;;24.47;77.86;98944.52;1724611;83;21454;-65
2022/08/22 06:35:10;;;;;;;24.65;5.47;;;;;;;24.46;77.89;98940.20;1724281;83;21081;-66
2022/08/22 06:37:39;;;;;;;17.17;5.58;;;;;;;24.43;77.93;98940.52;1724383;83;21568;-65
2022/08/22 06:40:08;;;;;;;22.42;6.08;;;;;;;24.39;78.57;98943.17;1724144;83;20982;-65
2022/08/22 06:42:42;;;;;;;21.35;5.60;;;;;;;24.41;78.67;98949.66;1711778;83;21009;-66
2022/08/22 06:45:28;;;;;;;20.45;5.17;;;;;;;24.41;79.15;98937.20;1724615;83;21446;-65
2022/08/22 06:48:12;;;;;;;19.92;4.92;;;;;;;24.44;78.48;98942.19;1731853;81;20958;-65
2022/08/22 06:50:41;;;;;;;19.05;4.70;;;;;;;24.52;78.03;98937.39;1722001;83;21678;-66
2022/08/22 06:53:24;;;;;;;24.30;4.90;;;;;;;24.60;77.54;98938.70;1703865;84;20946;-66
2022/08/22 06:55:56;;;;;;;17.07;4.67;;;;;;;24.70;76.31;98946.04;1704033;83;21473;-64
2022/08/22 06:58:33;;;;;;;20.97;4.90;;;;;;;24.75;76.00;98941.55;1701149;84;21489;-65
2022/08/22 07:01:06;;;;;;;19.30;4.65;;;;;;;24.83;73.90;98950.84;1680545;84;21089;-65
2022/08/22 07:03:38;;;;;;;25.85;5.15;;;;;;;24.89;73.05;98956.84;1704015;84;21140;-65
2022/08/22 07:06:05;;;;;;;20.88;4.55;;;;;;;24.90;72.09;98954.02;1703974;84;21430;-65
2022/08/22 07:08:33;;;;;;;20.60;4.67;;;;;;;24.92;71.10;98955.17;1679983;84;21517;-65
2022/08/22 07:11:18;;;;;;;22.45;5.83;;;;;;;24.92;70.74;98951.19;1704229;84;21070;-65
2022/08/22 07:14:01;;;;;;;16.82;4.05;;;;;;;24.95;71.60;98956.21;1704184;84;20971;-66
2022/08/22 07:16:48;;;;;;;15.18;4.87;;;;;;;25.00;70.08;98947.20;1703877;84;21349;-65
2022/08/22 07:19:37;;;;;;;18.62;5.15;;;;;;;25.04;69.14;98944.05;1683572;84;20962;-65
2022/08/22 07:22:23;;;;;;;18.27;4.35;;;;;;;25.07;69.52;98940.22;1703884;83;20986;-65
2022/08/22 07:25:07;;;;;;;18.60;4.30;;;;;;;25.14;70.70;98947.88;1699635;84;21002;-64
2022/08/22 07:28:14;;;;;;;18.60;4.37;;;;;;;25.25;70.38;98948.84;1703324;84;20966;-64
2022/08/22 07:31:01;;;;;;;17.37;4.50;;;;;;;25.34;69.02;98945.17;1703565;84;21161;-64
2022/08/22 07:33:47;;;;;;;15.95;4.70;;;;;;;25.44;67.81;98949.45;1703380;84;21115;-65
2022/08/22 07:36:31;;;;;;;23.75;4.72;;;;;;;25.51;66.26;98946.45;1703430;84;20973;-70
2022/08/22 07:39:19;;;;;;;21.40;3.50;;;;;;;25.52;66.19;98939.63;1703051;84;21458;-72
2022/08/22 07:42:17;;;;;;;13.08;4.10;;;;;;;25.59;66.65;98942.41;1703016;84;21013;-66
2022/08/22 07:45:01;;;;;;;17.30;3.50;;;;;;;25.65;66.32;98940.44;1702761;84;21902;-65
2022/08/22 07:48:00;;;;;;;26.02;4.15;;;;;;;25.76;65.54;98936.58;1703029;84;20974;-67
2022/08/22 07:50:31;;;;;;;15.30;4.22;;;;;;;25.82;62.92;98931.87;1703048;84;21501;-67
2022/08/22 07:53:18;;;;;;;15.95;4.00;;;;;;;25.82;63.87;98931.37;1702380;84;21093;-67
2022/08/22 07:55:45;;;;;;;13.28;4.62;;;;;;;25.88;64.09;98935.17;1703393;84;21013;-66
2022/08/22 07:58:14;;;;;;;14.73;4.00;;;;;;;25.92;64.04;98933.83;1703598;84;21104;-66
2022/08/22 08:00:43;;;;;;;20.97;4.75;;;;;;;25.97;62.60;98919.49;1675220;84;21186;-66
2022/08/22 08:03:11;;;;;;;17.30;5.30;;;;;;;26.05;63.09;98918.09;1703023;84;21489;-67
2022/08/22 08:05:40;;;;;;;9.78;4.20;;;;;;;26.15;62.36;98923.22;1703390;84;21026;-66
2022/08/22 08:08:21;;;;;;;15.55;4.03;;;;;;;26.21;62.80;98923.32;1675733;84;21021;-65
2022/08/22 08:10:47;;;;;;;16.55;3.45;;;;;;;26.26;61.49;98924.13;1702452;84;21817;-66
2022/08/22 08:13:26;;;;;;;20.50;3.98;;;;;;;26.25;59.00;98917.14;1674607;84;21426;-65
2022/08/22 08:15:53;;;;;;;10.53;3.58;;;;;;;26.22;58.65;98914.32;1700675;84;21046;-65
2022/08/22 08:18:22;;;;;;;13.15;3.37;;;;;;;26.23;59.18;98913.31;1703243;84;21069;-66
2022/08/22 08:20:52;;;;;;;15.53;3.60;;;;;;;26.26;59.23;98912.97;1703600;82;21587;-66
2022/08/22 08:23:19;;;;;;;14.95;3.55;;;;;;;26.31;59.91;98897.31;1696242;84;21159;-67
2022/08/22 08:25:56;;;;;;;13.60;3.45;;;;;;;26.39;59.47;98905.73;1695627;84;21410;-66
2022/08/22 08:28:32;;;;;;;16.27;3.70;;;;;;;26.45;59.05;98901.53;1689888;84;21033;-66
2022/08/22 08:31:24;;;;;;;19.00;3.77;;;;;;;26.51;57.98;98899.49;1666238;84;21054;-66
2022/08/22 08:33:59;;;;;;;13.03;3.25;;;;;;;26.56;57.97;98896.63;1637153;86;21106;-66
2022/08/22 08:36:40;;;;;;;14.65;3.10;;;;;;;26.60;58.82;98903.23;1665111;86;21159;-66
2022/08/22 08:39:18;;;;;;;14.18;3.62;;;;;;;26.66;56.72;98898.52;1638509;86;21001;-65
2022/08/22 08:42:10;;;;;;;15.85;3.25;;;;;;;26.70;56.81;98907.00;1666250;86;21662;-65
2022/08/22 08:45:20;;;;;;;14.98;2.98;;;;;;;26.74;57.07;98902.97;1665733;86;21524;-66
2022/08/22 08:48:30;;;;;;;19.57;3.67;;;;;;;26.76;58.33;98905.78;1663792;86;21565;-65
2022/08/22 08:51:15;;;;;;;17.57;3.80;;;;;;;26.84;56.90;98900.03;1583558;90;21344;-66
2022/08/22 08:54:10;;;;;;;14.38;3.80;;;;;;;26.90;56.31;98901.48;1609958;89;21086;-65
2022/08/22 08:57:28;;;;;;;12.93;3.30;;;;;;;26.94;56.33;98895.28;1655014;85;21058;-66
2022/08/22 09:00:14;;;;;;;17.65;3.55;;;;;;;26.97;55.90;98902.96;1665486;86;21109;-67
2022/08/22 09:03:09;;;;;;;13.90;3.27;;;;;;;27.02;57.42;98890.70;1665149;84;21124;-66
2022/08/22 09:06:28;;;;;;;15.25;3.40;;;;;;;27.10;55.57;98892.47;1649619;86;21154;-68
2022/08/22 09:09:17;;;;;;;16.80;3.17;;;;;;;27.17;54.47;98887.24;1665313;86;21073;-66
2022/08/22 09:12:20;;;;;;;12.15;3.25;;;;;;;27.22;55.53;98884.32;1652566;86;21010;-65
2022/08/22 09:15:12;;;;;;;16.42;3.02;;;;;;;27.29;54.58;98887.92;1663174;86;21022;-66
2022/08/22 09:18:00;;;;;;;16.07;3.17;;;;;;;27.37;55.20;98889.17;1665388;84;21033;-66
2022/08/22 09:20:48;;;;;;;15.58;3.00;;;;;;;27.45;52.27;98882.39;1665822;84;21606;-66
2022/08/22 09:23:35;;;;;;;10.45;2.85;;;;;;;27.52;51.27;98884.33;1669076;85;20947;-65
2022/08/22 09:26:27;;;;;;;14.07;3.15;;;;;;;27.57;51.15;98872.11;1669836;86;21423;-68
2022/08/22 09:29:15;;;;;;;21.57;3.80;;;;;;;27.64;51.62;98875.67;1646586;84;21073;-66
2022/08/22 09:32:00;;;;;;;17.00;3.47;;;;;;;27.71;49.81;98884.61;1669856;84;21006;-66
2022/08/22 09:34:47;;;;;;;14.98;3.83;;;;;;;27.76;50.03;98877.37;1621250;86;21165;-66
2022/08/22 09:37:40;;;;;;;16.55;3.52;;;;;;;27.85;49.72;98878.89;1669342;86;21553;-66
2022/08/22 09:40:23;;;;;;;11.60;2.80;;;;;;;27.91;49.83;98876.81;1669848;84;21007;-65
2022/08/22 09:43:17;;;;;;;17.90;3.02;;;;;;;27.94;48.69;98879.63;1669871;86;21089;-65
2022/08/22 09:46:10;;;;;;;19.90;3.08;;;;;;;27.92;49.04;98874.97;1670247;84;21552;-66
2022/08/22 09:48:42;;;;;;;18.67;3.70;;;;;;;27.93;48.56;98885.98;1665211;86;21105;-66
2022/08/22 09:51:14;;;;;;;15.30;2.70;;;;;;;27.94;48.12;98885.80;1669824;85;21089;-66
2022/08/22 09:53:55;;;;;;;14.43;3.05;;;;;;;27.97;46.72;98889.44;1669617;86;20990;-66
2022/08/22 09:56:26;;;;;;;16.57;2.87;;;;;;;27.99;45.98;98878.02;1669681;86;21066;-66
2022/08/22 09:59:03;;;;;;;13.68;3.12;;;;;;;28.07;46.21;98883.26;1667134;86;20982;-66
2022/08/22 10:01:39;;;;;;;18.20;4.05;;;;;;;28.15;45.74;98878.82;1669731;86;21146;-66
2022/08/22 10:04:32;;;;;;;22.02;3.87;;;;;;;28.23;46.00;98880.87;1666614;85;20998;-66
2022/08/22 10:07:20;;;;;;;15.10;3.40;;;;;;;28.31;45.92;98879.94;1669300;84;21541;-66
2022/08/22 10:10:16;;;;;;;12.70;3.22;;;;;;;28.38;45.65;98875.45;1670008;84;20979;-65
2022/08/22 10:13:12;;;;;;;24.80;3.90;;;;;;;28.44;45.09;98884.06;1669844;85;21109;-65
2022/08/22 10:15:44;;;;;;;17.35;3.30;;;;;;;28.46;43.93;98883.36;1669739;85;21217;-65
2022/08/22 10:18:36;;;;;;;19.57;3.22;;;;;;;28.52;44.71;98881.77;1667129;86;21513;-65
2022/08/22 10:21:16;;;;;;;24.23;3.60;;;;;;;28.58;44.07;98879.13;1650393;85;21101;-65
2022/08/22 10:24:00;;;;;;;21.02;3.10;;;;;;;28.67;44.44;98888.69;1667017;84;21046;-65
2022/08/22 10:26:50;;;;;;;24.32;3.15;;;;;;;28.75;44.60;98885.89;1669359;84;21419;-65
2022/08/22 10:29:58;;;;;;;19.95;2.90;;;;;;;28.88;44.55;98881.67;1669735;85;21806;-65
2022/08/22 10:32:36;;;;;;;27.58;4.22;;;;;;;28.94;42.63;98878.23;1670010;84;20975;-66
2022/08/22 10:35:32;;;;;;;17.95;3.62;;;;;;;28.97;41.99;98878.67;1670802;85;21473;-66
2022/08/22 10:38:23;;;;;;;26.02;3.55;;;;;;;29.03;42.46;98882.39;1723694;81;21037;-68
2022/08/22 10:41:34;;;;;;;22.80;3.80;;;;;;;29.07;41.71;98876.97;1723826;83;21083;-67
2022/08/22 10:44:20;;;;;;;22.87;3.65;;;;;;;29.11;41.46;98879.58;1725687;83;21296;-66
2022/08/22 10:46:59;;;;;;;26.55;3.50;;;;;;;29.15;42.14;98876.83;1726137;83;21055;-66
2022/08/22 10:49:31;;;;;;;40.33;4.85;;;;;;;29.22;42.26;98878.19;1725160;82;20954;-66
2022/08/22 10:52:06;;;;;;;19.40;4.65;;;;;;;29.30;40.48;98876.19;1725165;82;27034;-66
2022/08/22 10:55:08;;;;;;;27.55;3.85;;;;;;;29.36;40.09;98891.99;1723990;83;21049;-66
2022/08/22 10:58:09;;;;;;;27.35;4.47;;;;;;;29.31;39.42;98879.70;1737198;82;21162;-66
2022/08/22 11:01:00;;;;;;;31.62;5.45;;;;;;;29.27;40.30;98877.92;1739478;82;21021;-66
2022/08/22 11:03:55;;;;;;;34.83;5.08;;;;;;;29.34;40.44;98880.13;1725216;82;21033;-68
2022/08/22 11:06:30;;;;;;;30.50;4.53;;;;;;;29.40;39.98;98883.88;1693823;83;21558;-68
2022/08/22 11:09:22;;;;;;;30.90;4.42;;;;;;;29.40;38.94;98870.48;1702487;84;20999;-65
2022/08/22 11:11:59;;;;;;;;;;;;;;;29.44;38.54;98873.09;1698838;83;21914;-67
2022/08/22 11:14:52;;;;;;;34.50;4.80;;;;;;;29.48;38.12;98879.20;1704271;84;20133;-66
2022/08/22 11:17:31;;;;;;;30.08;4.62;;;;;;;29.51;38.21;98878.48;1703475;84;21073;-68
2022/08/22 11:20:12;;;;;;;32.75;4.47;;;;;;;29.58;38.02;98873.97;1703014;82;21014;-66
2022/08/22 11:23:03;;;;;;;37.67;5.37;;;;;;;29.63;37.74;98879.56;1702689;84;21011;-67
2022/08/22 11:25:57;;;;;;;34.67;5.23;;;;;;;29.65;38.20;98872.98;1685575;84;21185;-67
2022/08/22 11:28:33;;;;;;;;;;;;;;;29.64;37.53;98875.34;1678107;84;21592;-66
2022/08/22 11:31:24;;;;;;;27.55;5.33;;;;;;;29.64;38.14;98872.66;1697813;83;20467;-66
2022/08/22 11:34:07;;;;;;;33.60;4.70;;;;;;;29.65;38.76;98870.81;1703267;83;21517;-65
2022/08/22 11:36:50;;;;;;;26.42;4.83;;;;;;;29.67;38.78;98871.44;1698558;84;21125;-65
2022/08/22 11:39:36;;;;;;;;;;;;;;;29.68;38.21;98869.91;1677558;85;21211;-67
2022/08/22 11:42:17;;;;;;;44.93;5.55;;;;;;;29.68;38.10;98868.56;1698352;83;20209;-66
2022/08/22 11:44:52;;;;;;;56.05;7.17;;;;;;;29.70;39.14;98866.52;1672608;84;21011;-66
2022/08/22 11:47:23;;;;;;;47.08;6.35;;;;;;;29.76;39.00;98867.06;1700796;84;21058;-68
2022/08/22 11:50:38;;;;;;;39.53;6.22;;;;;;;29.82;38.11;98866.75;1692659;84;21044;-66
2022/08/22 11:53:19;;;;;;;45.85;7.05;;;;;;;29.86;38.29;98864.50;1703912;83;21093;-67
2022/08/22 11:55:58;;;;;;;31.45;6.10;;;;;;;29.92;37.98;98870.40;1699927;83;20958;-67
2022/08/22 11:58:46;;;;;;;45.17;6.40;;;;;;;29.86;38.47;98866.66;1699801;84;21498;-67
2022/08/22 12:01:19;;;;;;;41.95;6.62;;;;;;;29.86;38.43;98863.98;1703697;84;21514;-67
2022/08/22 12:03:50;;;;;;;39.88;6.50;;;;;;;29.86;39.33;98869.86;1703785;84;21038;-69
2022/08/22 12:06:47;;;;;;;38.40;6.53;;;;;;;29.90;39.56;98866.58;1704909;84;21233;-66
2022/08/22 12:09:43;;;;;;;46.40;7.20;;;;;;;29.92;38.80;98858.34;1703996;84;21007;-68
2022/08/22 12:12:40;;;;;;;55.05;7.72;;;;;;;29.88;38.79;98859.76;1703858;83;21041;-69
2022/08/22 12:15:12;;;;;;;54.58;7.53;;;;;;;29.87;40.14;98864.30;1701893;84;20971;-71
2022/08/22 12:17:48;;;;;;;53.02;7.05;;;;;;;29.88;39.41;98863.27;1705699;83;21054;-69
2022/08/22 12:20:53;;;;;;;57.17;7.40;;;;;;;29.80;39.00;98861.59;1701169;83;22464;-68
2022/08/22 12:23:43;;;;;;;63.50;7.92;;;;;;;29.72;39.19;98856.42;1704492;84;21037;-67
2022/08/22 12:26:19;;;;;;;59.45;8.08;;;;;;;29.70;39.37;98860.33;1675796;84;21008;-68
2022/08/22 12:29:00;;;;;;;54.75;8.55;;;;;;;29.66;39.39;98853.70;1706714;84;21171;-66
2022/08/22 12:32:07;;;;;;;68.33;8.93;;;;;;;29.66;38.89;98861.75;1708176;83;20955;-67
2022/08/22 12:34:46;;;;;;;68.83;9.03;;;;;;;29.62;38.33;98853.79;1675714;85;21484;-68
2022/08/22 12:37:33;;;;;;;57.75;7.92;;;;;;;29.60;39.09;98851.81;1685963;84;21001;-67
2022/08/22 12:40:36;;;;;;;70.83;7.67;;;;;;;29.58;40.38;98845.31;1709007;83;21037;-68
2022/08/22 12:43:28;;;;;;;55.10;7.70;;;;;;;29.62;41.00;98855.13;1708195;84;21059;-67
2022/08/22 12:46:09;;;;;;;50.25;8.15;;;;;;;29.68;41.25;98854.34;1706781;83;21540;-68